sensor_id;sensor_type;location;lat;lon;timestamp;P1;durP1;ratioP1;P2;durP2;ratioP2
12122;SDS011;6125;59.628;17.852;2024-03-22T00:02:11;4.40;;;3.30;;
12122;SDS011;6125;59.628;17.852;2024-03-22T00:04:44;3.97;;;2.93;;
12122;SDS011;6125;59.628;17.852;2024-03-22T00:07:13;4.57;;;3.33;;
12122;SDS011;6125;59.628;17.852;2024-03-22T00:09:49;3.87;;;3.17;;
12122;SDS011;6125;59.628;17.852;2024-03-22T00:12:23;3.87;;;3.00;;
12122;SDS011;6125;59.628;17.852;2024-03-22T00:14:49;3.57;;;2.87;;
12122;SDS011;6125;59.628;17.852;2024-03-22T00:17:20;4.07;;;3.10;;
12122;SDS011;6125;59.628;17.852;2024-03-22T00:19:52;3.37;;;2.70;;
12122;SDS011;6125;59.628;17.852;2024-03-22T00:22:22;4.77;;;2.90;;
12122;SDS011;6125;59.628;17.852;2024-03-22T00:24:54;3.83;;;3.00;;
12122;SDS011;6125;59.628;17.852;2024-03-22T00:27:28;3.27;;;2.77;;
12122;SDS011;6125;59.628;17.852;2024-03-22T00:29:54;3.10;;;2.67;;
12122;SDS011;6125;59.628;17.852;2024-03-22T00:32:23;3.57;;;2.47;;
12122;SDS011;6125;59.628;17.852;2024-03-22T00:35:05;3.07;;;2.77;;
12122;SDS011;6125;59.628;17.852;2024-03-22T00:37:32;3.60;;;3.03;;
12122;SDS011;6125;59.628;17.852;2024-03-22T00:40:09;4.23;;;3.00;;
12122;SDS011;6125;59.628;17.852;2024-03-22T00:42:39;3.50;;;2.87;;
12122;SDS011;6125;59.628;17.852;2024-03-22T00:45:06;3.63;;;2.97;;
12122;SDS011;6125;59.628;17.852;2024-03-22T00:47:39;3.67;;;2.83;;
12122;SDS011;6125;59.628;17.852;2024-03-22T00:50:09;3.67;;;2.90;;
12122;SDS011;6125;59.628;17.852;2024-03-22T00:52:36;3.13;;;2.60;;
12122;SDS011;6125;59.628;17.852;2024-03-22T00:55:13;4.70;;;3.50;;
12122;SDS011;6125;59.628;17.852;2024-03-22T00:57:40;4.33;;;3.10;;
12122;SDS011;6125;59.628;17.852;2024-03-22T01:00:22;4.30;;;3.17;;
12122;SDS011;6125;59.628;17.852;2024-03-22T01:02:53;3.13;;;2.73;;
12122;SDS011;6125;59.628;17.852;2024-03-22T01:05:31;3.20;;;2.83;;
12122;SDS011;6125;59.628;17.852;2024-03-22T01:08:00;3.47;;;2.63;;
12122;SDS011;6125;59.628;17.852;2024-03-22T01:10:28;3.53;;;2.87;;
12122;SDS011;6125;59.628;17.852;2024-03-22T01:13:02;3.70;;;2.73;;
12122;SDS011;6125;59.628;17.852;2024-03-22T01:15:30;4.00;;;3.00;;
12122;SDS011;6125;59.628;17.852;2024-03-22T01:18:12;4.80;;;3.77;;
12122;SDS011;6125;59.628;17.852;2024-03-22T01:20:39;5.07;;;3.53;;
12122;SDS011;6125;59.628;17.852;2024-03-22T01:23:10;4.37;;;3.47;;
12122;SDS011;6125;59.628;17.852;2024-03-22T01:25:46;5.27;;;4.07;;
12122;SDS011;6125;59.628;17.852;2024-03-22T01:28:13;7.03;;;3.60;;
12122;SDS011;6125;59.628;17.852;2024-03-22T01:30:39;5.70;;;3.77;;
12122;SDS011;6125;59.628;17.852;2024-03-22T01:33:12;5.73;;;3.80;;
12122;SDS011;6125;59.628;17.852;2024-03-22T01:35:47;6.53;;;4.53;;
12122;SDS011;6125;59.628;17.852;2024-03-22T01:38:21;5.13;;;4.30;;
12122;SDS011;6125;59.628;17.852;2024-03-22T01:40:49;6.83;;;4.13;;
12122;SDS011;6125;59.628;17.852;2024-03-22T01:43:17;5.53;;;4.07;;
12122;SDS011;6125;59.628;17.852;2024-03-22T01:45:51;7.07;;;4.13;;
12122;SDS011;6125;59.628;17.852;2024-03-22T01:48:20;6.07;;;4.20;;
12122;SDS011;6125;59.628;17.852;2024-03-22T01:50:51;5.87;;;4.40;;
12122;SDS011;6125;59.628;17.852;2024-03-22T01:53:40;6.37;;;4.20;;
12122;SDS011;6125;59.628;17.852;2024-03-22T01:56:09;6.53;;;4.30;;
12122;SDS011;6125;59.628;17.852;2024-03-22T01:58:44;5.10;;;4.10;;
12122;SDS011;6125;59.628;17.852;2024-03-22T02:01:11;7.00;;;4.30;;
12122;SDS011;6125;59.628;17.852;2024-03-22T02:03:38;5.87;;;4.27;;
12122;SDS011;6125;59.628;17.852;2024-03-22T02:06:12;7.33;;;4.30;;
12122;SDS011;6125;59.628;17.852;2024-03-22T02:08:40;6.80;;;4.43;;
12122;SDS011;6125;59.628;17.852;2024-03-22T02:11:10;6.00;;;4.10;;
12122;SDS011;6125;59.628;17.852;2024-03-22T02:13:47;7.43;;;4.73;;
12122;SDS011;6125;59.628;17.852;2024-03-22T02:16:15;6.37;;;4.53;;
12122;SDS011;6125;59.628;17.852;2024-03-22T02:18:42;5.43;;;4.00;;
12122;SDS011;6125;59.628;17.852;2024-03-22T02:21:16;6.50;;;4.13;;
12122;SDS011;6125;59.628;17.852;2024-03-22T02:23:48;6.23;;;4.07;;
12122;SDS011;6125;59.628;17.852;2024-03-22T02:26:20;6.33;;;4.43;;
12122;SDS011;6125;59.628;17.852;2024-03-22T02:28:54;6.87;;;4.50;;
12122;SDS011;6125;59.628;17.852;2024-03-22T02:31:21;7.80;;;4.80;;
12122;SDS011;6125;59.628;17.852;2024-03-22T02:33:49;7.00;;;4.27;;
12122;SDS011;6125;59.628;17.852;2024-03-22T02:36:30;6.53;;;3.83;;
12122;SDS011;6125;59.628;17.852;2024-03-22T02:38:59;5.83;;;4.57;;
12122;SDS011;6125;59.628;17.852;2024-03-22T02:41:31;7.13;;;4.50;;
12122;SDS011;6125;59.628;17.852;2024-03-22T02:44:00;7.07;;;4.57;;
12122;SDS011;6125;59.628;17.852;2024-03-22T02:46:26;8.13;;;4.50;;
12122;SDS011;6125;59.628;17.852;2024-03-22T02:49:05;6.40;;;4.40;;
12122;SDS011;6125;59.628;17.852;2024-03-22T02:51:36;6.57;;;4.97;;
12122;SDS011;6125;59.628;17.852;2024-03-22T02:54:12;6.73;;;4.73;;
12122;SDS011;6125;59.628;17.852;2024-03-22T02:56:38;6.20;;;4.33;;
12122;SDS011;6125;59.628;17.852;2024-03-22T02:59:06;7.03;;;4.70;;
12122;SDS011;6125;59.628;17.852;2024-03-22T03:01:40;7.50;;;4.80;;
12122;SDS011;6125;59.628;17.852;2024-03-22T03:04:07;7.53;;;3.77;;
12122;SDS011;6125;59.628;17.852;2024-03-22T03:06:34;7.93;;;4.23;;
12122;SDS011;6125;59.628;17.852;2024-03-22T03:09:09;7.00;;;3.60;;
12122;SDS011;6125;59.628;17.852;2024-03-22T03:11:40;7.57;;;3.87;;
12122;SDS011;6125;59.628;17.852;2024-03-22T03:14:15;6.63;;;3.73;;
12122;SDS011;6125;59.628;17.852;2024-03-22T03:16:44;5.80;;;3.37;;
12122;SDS011;6125;59.628;17.852;2024-03-22T03:19:11;5.67;;;3.27;;
12122;SDS011;6125;59.628;17.852;2024-03-22T03:21:43;4.03;;;3.10;;
12122;SDS011;6125;59.628;17.852;2024-03-22T03:24:14;4.60;;;2.63;;
12122;SDS011;6125;59.628;17.852;2024-03-22T03:26:43;3.80;;;3.03;;
12122;SDS011;6125;59.628;17.852;2024-03-22T03:29:16;3.00;;;2.70;;
12122;SDS011;6125;59.628;17.852;2024-03-22T03:31:48;3.20;;;2.90;;
12122;SDS011;6125;59.628;17.852;2024-03-22T03:34:18;3.97;;;2.90;;
12122;SDS011;6125;59.628;17.852;2024-03-22T03:36:51;5.30;;;2.73;;
12122;SDS011;6125;59.628;17.852;2024-03-22T03:39:23;3.97;;;3.00;;
12122;SDS011;6125;59.628;17.852;2024-03-22T03:41:53;4.63;;;2.67;;
12122;SDS011;6125;59.628;17.852;2024-03-22T03:44:28;3.80;;;2.50;;
12122;SDS011;6125;59.628;17.852;2024-03-22T03:46:54;3.53;;;2.73;;
12122;SDS011;6125;59.628;17.852;2024-03-22T03:49:21;4.27;;;3.10;;
12122;SDS011;6125;59.628;17.852;2024-03-22T03:51:53;4.50;;;2.63;;
12122;SDS011;6125;59.628;17.852;2024-03-22T03:54:21;2.87;;;2.40;;
12122;SDS011;6125;59.628;17.852;2024-03-22T03:56:47;4.23;;;2.97;;
12122;SDS011;6125;59.628;17.852;2024-03-22T03:59:24;4.57;;;2.67;;
12122;SDS011;6125;59.628;17.852;2024-03-22T04:01:50;3.53;;;2.97;;
12122;SDS011;6125;59.628;17.852;2024-03-22T04:04:19;6.13;;;3.27;;
12122;SDS011;6125;59.628;17.852;2024-03-22T04:06:51;4.83;;;3.20;;
12122;SDS011;6125;59.628;17.852;2024-03-22T04:09:21;3.47;;;2.37;;
12122;SDS011;6125;59.628;17.852;2024-03-22T04:11:50;3.77;;;2.77;;
12122;SDS011;6125;59.628;17.852;2024-03-22T04:14:29;3.47;;;2.67;;
12122;SDS011;6125;59.628;17.852;2024-03-22T04:16:55;3.53;;;2.60;;
12122;SDS011;6125;59.628;17.852;2024-03-22T04:19:22;3.80;;;3.20;;
12122;SDS011;6125;59.628;17.852;2024-03-22T04:21:55;3.67;;;2.40;;
12122;SDS011;6125;59.628;17.852;2024-03-22T04:24:23;4.07;;;2.83;;
12122;SDS011;6125;59.628;17.852;2024-03-22T04:26:52;4.13;;;3.20;;
12122;SDS011;6125;59.628;17.852;2024-03-22T04:29:29;4.50;;;3.07;;
12122;SDS011;6125;59.628;17.852;2024-03-22T04:31:55;4.70;;;3.30;;
12122;SDS011;6125;59.628;17.852;2024-03-22T04:34:22;6.63;;;3.67;;
12122;SDS011;6125;59.628;17.852;2024-03-22T04:36:55;4.77;;;3.50;;
12122;SDS011;6125;59.628;17.852;2024-03-22T04:39:23;7.13;;;3.10;;
12122;SDS011;6125;59.628;17.852;2024-03-22T04:41:51;6.23;;;4.07;;
12122;SDS011;6125;59.628;17.852;2024-03-22T04:44:25;4.07;;;3.10;;
12122;SDS011;6125;59.628;17.852;2024-03-22T04:46:57;5.00;;;3.73;;
12122;SDS011;6125;59.628;17.852;2024-03-22T04:49:24;5.23;;;3.60;;
12122;SDS011;6125;59.628;17.852;2024-03-22T04:51:56;5.23;;;3.60;;
12122;SDS011;6125;59.628;17.852;2024-03-22T04:54:29;5.93;;;3.90;;
12122;SDS011;6125;59.628;17.852;2024-03-22T04:57:06;5.93;;;3.87;;
12122;SDS011;6125;59.628;17.852;2024-03-22T04:59:36;5.80;;;4.17;;
12122;SDS011;6125;59.628;17.852;2024-03-22T05:02:06;8.13;;;3.90;;
12122;SDS011;6125;59.628;17.852;2024-03-22T05:04:43;6.20;;;4.20;;
12122;SDS011;6125;59.628;17.852;2024-03-22T05:07:09;7.03;;;3.90;;
12122;SDS011;6125;59.628;17.852;2024-03-22T05:09:36;6.53;;;4.37;;
12122;SDS011;6125;59.628;17.852;2024-03-22T05:12:09;5.77;;;4.10;;
12122;SDS011;6125;59.628;17.852;2024-03-22T05:14:36;7.20;;;4.00;;
12122;SDS011;6125;59.628;17.852;2024-03-22T05:17:04;5.20;;;3.93;;
12122;SDS011;6125;59.628;17.852;2024-03-22T05:19:39;6.17;;;4.13;;
12122;SDS011;6125;59.628;17.852;2024-03-22T05:22:05;5.83;;;4.07;;
12122;SDS011;6125;59.628;17.852;2024-03-22T05:24:35;5.40;;;4.10;;
12122;SDS011;6125;59.628;17.852;2024-03-22T05:27:10;6.47;;;4.50;;
12122;SDS011;6125;59.628;17.852;2024-03-22T05:29:40;6.70;;;4.03;;
12122;SDS011;6125;59.628;17.852;2024-03-22T05:32:08;5.93;;;4.33;;
12122;SDS011;6125;59.628;17.852;2024-03-22T05:34:49;6.97;;;4.40;;
12122;SDS011;6125;59.628;17.852;2024-03-22T05:37:23;7.47;;;4.20;;
12122;SDS011;6125;59.628;17.852;2024-03-22T05:39:58;7.73;;;4.67;;
12122;SDS011;6125;59.628;17.852;2024-03-22T05:42:27;7.47;;;4.60;;
12122;SDS011;6125;59.628;17.852;2024-03-22T05:44:55;6.40;;;4.50;;
12122;SDS011;6125;59.628;17.852;2024-03-22T05:47:28;9.17;;;5.17;;
12122;SDS011;6125;59.628;17.852;2024-03-22T05:50:00;6.87;;;4.63;;
12122;SDS011;6125;59.628;17.852;2024-03-22T05:52:36;7.10;;;4.00;;
12122;SDS011;6125;59.628;17.852;2024-03-22T05:55:08;5.87;;;4.60;;
12122;SDS011;6125;59.628;17.852;2024-03-22T05:57:34;10.10;;;4.13;;
12122;SDS011;6125;59.628;17.852;2024-03-22T06:00:08;6.43;;;4.27;;
12122;SDS011;6125;59.628;17.852;2024-03-22T06:02:34;5.60;;;4.23;;
12122;SDS011;6125;59.628;17.852;2024-03-22T06:05:03;6.40;;;3.73;;
12122;SDS011;6125;59.628;17.852;2024-03-22T06:07:36;6.13;;;4.00;;
12122;SDS011;6125;59.628;17.852;2024-03-22T06:10:10;5.43;;;3.97;;
12122;SDS011;6125;59.628;17.852;2024-03-22T06:12:43;5.70;;;4.20;;
12122;SDS011;6125;59.628;17.852;2024-03-22T06:15:15;4.07;;;3.53;;
12122;SDS011;6125;59.628;17.852;2024-03-22T06:17:51;4.90;;;3.47;;
12122;SDS011;6125;59.628;17.852;2024-03-22T06:20:24;6.33;;;3.90;;
12122;SDS011;6125;59.628;17.852;2024-03-22T06:22:58;6.43;;;3.67;;
12122;SDS011;6125;59.628;17.852;2024-03-22T06:25:28;5.00;;;3.70;;
12122;SDS011;6125;59.628;17.852;2024-03-22T06:27:57;4.47;;;3.67;;
12122;SDS011;6125;59.628;17.852;2024-03-22T06:30:33;4.77;;;3.40;;
12122;SDS011;6125;59.628;17.852;2024-03-22T06:33:00;4.90;;;3.43;;
12122;SDS011;6125;59.628;17.852;2024-03-22T06:35:29;5.63;;;3.50;;
12122;SDS011;6125;59.628;17.852;2024-03-22T06:38:03;7.03;;;3.67;;
12122;SDS011;6125;59.628;17.852;2024-03-22T06:40:33;4.73;;;3.40;;
12122;SDS011;6125;59.628;17.852;2024-03-22T06:43:00;9.20;;;3.33;;
12122;SDS011;6125;59.628;17.852;2024-03-22T06:45:38;5.40;;;3.07;;
12122;SDS011;6125;59.628;17.852;2024-03-22T06:48:04;4.70;;;3.40;;
12122;SDS011;6125;59.628;17.852;2024-03-22T06:50:36;3.77;;;3.20;;
12122;SDS011;6125;59.628;17.852;2024-03-22T06:53:11;6.07;;;3.00;;
12122;SDS011;6125;59.628;17.852;2024-03-22T06:55:39;4.20;;;3.20;;
12122;SDS011;6125;59.628;17.852;2024-03-22T06:58:05;5.10;;;3.30;;
12122;SDS011;6125;59.628;17.852;2024-03-22T07:00:39;4.30;;;3.07;;
12122;SDS011;6125;59.628;17.852;2024-03-22T07:03:05;3.63;;;2.93;;
12122;SDS011;6125;59.628;17.852;2024-03-22T07:05:38;6.40;;;3.13;;
12122;SDS011;6125;59.628;17.852;2024-03-22T07:08:11;3.37;;;2.70;;
12122;SDS011;6125;59.628;17.852;2024-03-22T07:10:38;3.70;;;3.13;;
12122;SDS011;6125;59.628;17.852;2024-03-22T07:13:05;4.30;;;3.27;;
12122;SDS011;6125;59.628;17.852;2024-03-22T07:15:39;4.70;;;3.50;;
12122;SDS011;6125;59.628;17.852;2024-03-22T07:18:05;4.53;;;3.00;;
12122;SDS011;6125;59.628;17.852;2024-03-22T07:20:32;6.97;;;2.80;;
12122;SDS011;6125;59.628;17.852;2024-03-22T07:23:10;4.10;;;2.90;;
12122;SDS011;6125;59.628;17.852;2024-03-22T07:25:55;5.17;;;3.30;;
12122;SDS011;6125;59.628;17.852;2024-03-22T07:28:28;3.30;;;2.80;;
12122;SDS011;6125;59.628;17.852;2024-03-22T07:31:03;3.40;;;2.80;;
12122;SDS011;6125;59.628;17.852;2024-03-22T07:33:36;4.93;;;2.93;;
12122;SDS011;6125;59.628;17.852;2024-03-22T07:36:04;4.37;;;2.73;;
12122;SDS011;6125;59.628;17.852;2024-03-22T07:38:35;2.77;;;2.33;;
12122;SDS011;6125;59.628;17.852;2024-03-22T07:41:10;3.30;;;2.63;;
12122;SDS011;6125;59.628;17.852;2024-03-22T07:43:43;4.47;;;2.87;;
12122;SDS011;6125;59.628;17.852;2024-03-22T07:46:24;3.40;;;2.83;;
12122;SDS011;6125;59.628;17.852;2024-03-22T07:48:51;4.50;;;3.23;;
12122;SDS011;6125;59.628;17.852;2024-03-22T07:51:20;4.20;;;2.77;;
12122;SDS011;6125;59.628;17.852;2024-03-22T07:53:54;3.90;;;2.70;;
12122;SDS011;6125;59.628;17.852;2024-03-22T07:56:24;3.83;;;2.83;;
12122;SDS011;6125;59.628;17.852;2024-03-22T07:58:55;4.70;;;3.23;;
12122;SDS011;6125;59.628;17.852;2024-03-22T08:01:30;4.13;;;2.97;;
12122;SDS011;6125;59.628;17.852;2024-03-22T08:03:59;3.80;;;3.00;;
12122;SDS011;6125;59.628;17.852;2024-03-22T08:06:39;3.37;;;2.67;;
12122;SDS011;6125;59.628;17.852;2024-03-22T08:09:06;5.20;;;2.47;;
12122;SDS011;6125;59.628;17.852;2024-03-22T08:11:33;3.37;;;2.70;;
12122;SDS011;6125;59.628;17.852;2024-03-22T08:14:06;4.73;;;3.10;;
12122;SDS011;6125;59.628;17.852;2024-03-22T08:16:35;6.40;;;2.67;;
12122;SDS011;6125;59.628;17.852;2024-03-22T08:19:03;2.80;;;2.30;;
12122;SDS011;6125;59.628;17.852;2024-03-22T08:21:38;3.80;;;2.33;;
12122;SDS011;6125;59.628;17.852;2024-03-22T08:24:04;2.90;;;2.60;;
12122;SDS011;6125;59.628;17.852;2024-03-22T08:26:34;2.53;;;2.23;;
12122;SDS011;6125;59.628;17.852;2024-03-22T08:29:07;4.77;;;2.63;;
12122;SDS011;6125;59.628;17.852;2024-03-22T08:31:34;5.60;;;2.50;;
12122;SDS011;6125;59.628;17.852;2024-03-22T08:34:03;3.23;;;2.43;;
12122;SDS011;6125;59.628;17.852;2024-03-22T08:36:38;3.47;;;2.40;;
12122;SDS011;6125;59.628;17.852;2024-03-22T08:39:05;2.77;;;2.20;;
12122;SDS011;6125;59.628;17.852;2024-03-22T08:41:37;4.27;;;2.20;;
12122;SDS011;6125;59.628;17.852;2024-03-22T08:44:12;5.10;;;2.37;;
12122;SDS011;6125;59.628;17.852;2024-03-22T08:46:39;3.83;;;1.90;;
12122;SDS011;6125;59.628;17.852;2024-03-22T08:49:06;3.37;;;2.33;;
12122;SDS011;6125;59.628;17.852;2024-03-22T08:51:40;2.97;;;2.23;;
12122;SDS011;6125;59.628;17.852;2024-03-22T08:54:08;2.70;;;2.10;;
12122;SDS011;6125;59.628;17.852;2024-03-22T08:56:41;3.60;;;2.57;;
12122;SDS011;6125;59.628;17.852;2024-03-22T08:59:18;2.93;;;2.50;;
12122;SDS011;6125;59.628;17.852;2024-03-22T09:01:45;3.87;;;1.90;;
12122;SDS011;6125;59.628;17.852;2024-03-22T09:04:13;2.37;;;1.90;;
12122;SDS011;6125;59.628;17.852;2024-03-22T09:06:52;3.40;;;2.00;;
12122;SDS011;6125;59.628;17.852;2024-03-22T09:09:23;2.43;;;2.00;;
12122;SDS011;6125;59.628;17.852;2024-03-22T09:11:51;4.77;;;2.30;;
12122;SDS011;6125;59.628;17.852;2024-03-22T09:14:25;2.97;;;2.67;;
12122;SDS011;6125;59.628;17.852;2024-03-22T09:16:53;3.07;;;2.30;;
12122;SDS011;6125;59.628;17.852;2024-03-22T09:19:20;2.80;;;2.10;;
12122;SDS011;6125;59.628;17.852;2024-03-22T09:21:53;3.93;;;1.90;;
12122;SDS011;6125;59.628;17.852;2024-03-22T09:24:22;2.30;;;2.10;;
12122;SDS011;6125;59.628;17.852;2024-03-22T09:26:49;3.53;;;2.67;;
12122;SDS011;6125;59.628;17.852;2024-03-22T09:29:26;3.97;;;2.20;;
12122;SDS011;6125;59.628;17.852;2024-03-22T09:31:53;3.60;;;2.37;;
12122;SDS011;6125;59.628;17.852;2024-03-22T09:34:21;3.23;;;2.30;;
12122;SDS011;6125;59.628;17.852;2024-03-22T09:36:57;3.33;;;2.07;;
12122;SDS011;6125;59.628;17.852;2024-03-22T09:39:28;4.47;;;2.20;;
12122;SDS011;6125;59.628;17.852;2024-03-22T09:42:03;3.27;;;2.40;;
12122;SDS011;6125;59.628;17.852;2024-03-22T09:44:35;4.67;;;2.70;;
12122;SDS011;6125;59.628;17.852;2024-03-22T09:47:15;3.77;;;3.00;;
12122;SDS011;6125;59.628;17.852;2024-03-22T09:49:46;4.03;;;2.93;;
12122;SDS011;6125;59.628;17.852;2024-03-22T09:52:23;4.77;;;3.20;;
12122;SDS011;6125;59.628;17.852;2024-03-22T09:54:54;4.10;;;2.90;;
12122;SDS011;6125;59.628;17.852;2024-03-22T09:57:34;5.60;;;3.10;;
12122;SDS011;6125;59.628;17.852;2024-03-22T10:00:07;4.80;;;3.63;;
12122;SDS011;6125;59.628;17.852;2024-03-22T10:02:46;5.07;;;3.50;;
12122;SDS011;6125;59.628;17.852;2024-03-22T10:05:16;4.17;;;3.20;;
12122;SDS011;6125;59.628;17.852;2024-03-22T10:07:44;5.33;;;3.53;;
12122;SDS011;6125;59.628;17.852;2024-03-22T10:10:18;5.67;;;3.40;;
12122;SDS011;6125;59.628;17.852;2024-03-22T10:12:51;5.57;;;4.13;;
12122;SDS011;6125;59.628;17.852;2024-03-22T10:15:27;4.90;;;3.60;;
12122;SDS011;6125;59.628;17.852;2024-03-22T10:17:53;6.60;;;3.63;;
12122;SDS011;6125;59.628;17.852;2024-03-22T10:20:22;5.17;;;4.23;;
12122;SDS011;6125;59.628;17.852;2024-03-22T10:22:55;8.07;;;4.23;;
12122;SDS011;6125;59.628;17.852;2024-03-22T10:25:24;6.03;;;3.90;;
12122;SDS011;6125;59.628;17.852;2024-03-22T10:27:56;5.43;;;3.77;;
12122;SDS011;6125;59.628;17.852;2024-03-22T10:30:32;6.73;;;3.73;;
12122;SDS011;6125;59.628;17.852;2024-03-22T10:33:08;5.03;;;3.47;;
12122;SDS011;6125;59.628;17.852;2024-03-22T10:35:41;5.33;;;3.53;;
12122;SDS011;6125;59.628;17.852;2024-03-22T10:38:09;5.07;;;3.30;;
12122;SDS011;6125;59.628;17.852;2024-03-22T10:40:38;5.37;;;3.90;;
12122;SDS011;6125;59.628;17.852;2024-03-22T10:43:13;4.97;;;3.43;;
12122;SDS011;6125;59.628;17.852;2024-03-22T10:45:40;5.10;;;3.77;;
12122;SDS011;6125;59.628;17.852;2024-03-22T10:48:09;4.70;;;3.53;;
12122;SDS011;6125;59.628;17.852;2024-03-22T10:50:42;4.17;;;3.17;;
12122;SDS011;6125;59.628;17.852;2024-03-22T10:53:23;5.40;;;3.47;;
12122;SDS011;6125;59.628;17.852;2024-03-22T10:56:03;6.00;;;3.90;;
12122;SDS011;6125;59.628;17.852;2024-03-22T10:58:33;4.83;;;3.53;;
12122;SDS011;6125;59.628;17.852;2024-03-22T11:01:21;3.77;;;3.00;;
12122;SDS011;6125;59.628;17.852;2024-03-22T11:03:51;4.30;;;3.37;;
12122;SDS011;6125;59.628;17.852;2024-03-22T11:06:40;5.13;;;3.57;;
12122;SDS011;6125;59.628;17.852;2024-03-22T11:09:06;3.63;;;2.80;;
12122;SDS011;6125;59.628;17.852;2024-03-22T11:11:36;4.03;;;3.00;;
12122;SDS011;6125;59.628;17.852;2024-03-22T11:14:13;4.50;;;2.93;;
12122;SDS011;6125;59.628;17.852;2024-03-22T11:16:43;3.57;;;3.00;;
12122;SDS011;6125;59.628;17.852;2024-03-22T11:19:17;3.13;;;2.73;;
12122;SDS011;6125;59.628;17.852;2024-03-22T11:21:44;3.53;;;2.33;;
12122;SDS011;6125;59.628;17.852;2024-03-22T11:24:11;3.67;;;3.10;;
12122;SDS011;6125;59.628;17.852;2024-03-22T11:26:46;2.97;;;2.63;;
12122;SDS011;6125;59.628;17.852;2024-03-22T11:29:14;4.70;;;2.77;;
12122;SDS011;6125;59.628;17.852;2024-03-22T11:31:41;4.20;;;2.87;;
12122;SDS011;6125;59.628;17.852;2024-03-22T11:34:14;4.60;;;2.60;;
12122;SDS011;6125;59.628;17.852;2024-03-22T11:36:42;3.57;;;2.37;;
12122;SDS011;6125;59.628;17.852;2024-03-22T11:39:08;5.23;;;3.57;;
12122;SDS011;6125;59.628;17.852;2024-03-22T11:41:43;4.47;;;3.13;;
12122;SDS011;6125;59.628;17.852;2024-03-22T11:44:09;3.67;;;2.90;;
12122;SDS011;6125;59.628;17.852;2024-03-22T11:46:50;3.67;;;2.77;;
12122;SDS011;6125;59.628;17.852;2024-03-22T11:49:31;5.27;;;3.07;;
12122;SDS011;6125;59.628;17.852;2024-03-22T11:52:07;4.10;;;2.73;;
12122;SDS011;6125;59.628;17.852;2024-03-22T11:54:40;3.77;;;2.80;;
12122;SDS011;6125;59.628;17.852;2024-03-22T11:57:09;4.30;;;2.67;;
12122;SDS011;6125;59.628;17.852;2024-03-22T11:59:41;4.60;;;2.77;;
12122;SDS011;6125;59.628;17.852;2024-03-22T12:02:16;3.83;;;2.50;;
12122;SDS011;6125;59.628;17.852;2024-03-22T12:04:47;4.33;;;2.90;;
12122;SDS011;6125;59.628;17.852;2024-03-22T12:07:15;3.30;;;2.70;;
12122;SDS011;6125;59.628;17.852;2024-03-22T12:09:49;2.90;;;2.60;;
12122;SDS011;6125;59.628;17.852;2024-03-22T12:12:38;2.67;;;2.43;;
12122;SDS011;6125;59.628;17.852;2024-03-22T12:15:12;2.43;;;2.23;;
12122;SDS011;6125;59.628;17.852;2024-03-22T12:17:41;2.70;;;2.07;;
12122;SDS011;6125;59.628;17.852;2024-03-22T12:20:10;2.47;;;2.27;;
12122;SDS011;6125;59.628;17.852;2024-03-22T12:22:43;2.10;;;1.90;;
12122;SDS011;6125;59.628;17.852;2024-03-22T12:25:09;2.20;;;2.00;;
12122;SDS011;6125;59.628;17.852;2024-03-22T12:27:37;2.87;;;2.00;;
12122;SDS011;6125;59.628;17.852;2024-03-22T12:30:11;2.43;;;2.00;;
12122;SDS011;6125;59.628;17.852;2024-03-22T12:32:41;4.63;;;2.00;;
12122;SDS011;6125;59.628;17.852;2024-03-22T12:35:07;3.13;;;2.00;;
12122;SDS011;6125;59.628;17.852;2024-03-22T12:37:42;3.63;;;1.90;;
12122;SDS011;6125;59.628;17.852;2024-03-22T12:40:10;2.00;;;1.80;;
12122;SDS011;6125;59.628;17.852;2024-03-22T12:42:41;2.57;;;1.80;;
12122;SDS011;6125;59.628;17.852;2024-03-22T12:45:16;3.70;;;2.10;;
12122;SDS011;6125;59.628;17.852;2024-03-22T12:47:50;3.50;;;1.97;;
12122;SDS011;6125;59.628;17.852;2024-03-22T12:50:29;2.00;;;1.80;;
12122;SDS011;6125;59.628;17.852;2024-03-22T12:52:57;2.50;;;2.30;;
12122;SDS011;6125;59.628;17.852;2024-03-22T12:55:26;4.27;;;2.00;;
12122;SDS011;6125;59.628;17.852;2024-03-22T12:58:00;1.93;;;1.80;;
12122;SDS011;6125;59.628;17.852;2024-03-22T13:00:31;2.20;;;1.90;;
12122;SDS011;6125;59.628;17.852;2024-03-22T13:03:00;2.20;;;1.90;;
12122;SDS011;6125;59.628;17.852;2024-03-22T13:05:37;3.60;;;2.20;;
12122;SDS011;6125;59.628;17.852;2024-03-22T13:08:03;3.50;;;2.10;;
12122;SDS011;6125;59.628;17.852;2024-03-22T13:10:33;2.20;;;1.97;;
12122;SDS011;6125;59.628;17.852;2024-03-22T13:13:06;4.73;;;2.47;;
12122;SDS011;6125;59.628;17.852;2024-03-22T13:15:44;2.00;;;1.80;;
12122;SDS011;6125;59.628;17.852;2024-03-22T13:18:19;2.93;;;1.93;;
12122;SDS011;6125;59.628;17.852;2024-03-22T13:20:53;3.27;;;1.70;;
12122;SDS011;6125;59.628;17.852;2024-03-22T13:23:51;1.60;;;1.50;;
12122;SDS011;6125;59.628;17.852;2024-03-22T13:26:19;3.20;;;1.90;;
12122;SDS011;6125;59.628;17.852;2024-03-22T13:28:56;2.03;;;1.67;;
12122;SDS011;6125;59.628;17.852;2024-03-22T13:31:23;2.60;;;1.67;;
12122;SDS011;6125;59.628;17.852;2024-03-22T13:33:50;5.97;;;1.63;;
12122;SDS011;6125;59.628;17.852;2024-03-22T13:36:31;2.40;;;1.90;;
12122;SDS011;6125;59.628;17.852;2024-03-22T13:38:58;2.60;;;1.60;;
12122;SDS011;6125;59.628;17.852;2024-03-22T13:41:36;1.50;;;1.37;;
12122;SDS011;6125;59.628;17.852;2024-03-22T13:44:02;4.00;;;1.70;;
12122;SDS011;6125;59.628;17.852;2024-03-22T13:46:31;3.20;;;1.60;;
12122;SDS011;6125;59.628;17.852;2024-03-22T13:49:15;1.93;;;1.67;;
12122;SDS011;6125;59.628;17.852;2024-03-22T13:51:45;3.57;;;1.87;;
12122;SDS011;6125;59.628;17.852;2024-03-22T13:54:11;3.07;;;1.73;;
12122;SDS011;6125;59.628;17.852;2024-03-22T13:56:45;6.20;;;2.07;;
12122;SDS011;6125;59.628;17.852;2024-03-22T13:59:11;3.90;;;1.80;;
12122;SDS011;6125;59.628;17.852;2024-03-22T14:01:40;1.87;;;1.37;;
12122;SDS011;6125;59.628;17.852;2024-03-22T14:04:17;2.90;;;1.70;;
12122;SDS011;6125;59.628;17.852;2024-03-22T14:06:45;1.50;;;1.40;;
12122;SDS011;6125;59.628;17.852;2024-03-22T14:09:11;2.43;;;1.20;;
12122;SDS011;6125;59.628;17.852;2024-03-22T14:11:47;3.17;;;1.40;;
12122;SDS011;6125;59.628;17.852;2024-03-22T14:14:16;3.27;;;1.60;;
12122;SDS011;6125;59.628;17.852;2024-03-22T14:16:45;4.03;;;1.40;;
12122;SDS011;6125;59.628;17.852;2024-03-22T14:19:22;1.43;;;1.33;;
12122;SDS011;6125;59.628;17.852;2024-03-22T14:21:51;4.23;;;1.97;;
12122;SDS011;6125;59.628;17.852;2024-03-22T14:24:28;3.67;;;1.53;;
12122;SDS011;6125;59.628;17.852;2024-03-22T14:26:58;5.10;;;1.60;;
12122;SDS011;6125;59.628;17.852;2024-03-22T14:29:24;4.13;;;1.77;;
12122;SDS011;6125;59.628;17.852;2024-03-22T14:31:58;3.10;;;1.50;;
12122;SDS011;6125;59.628;17.852;2024-03-22T14:34:26;3.43;;;1.40;;
12122;SDS011;6125;59.628;17.852;2024-03-22T14:36:55;2.80;;;1.33;;
12122;SDS011;6125;59.628;17.852;2024-03-22T14:39:28;4.63;;;1.63;;
12122;SDS011;6125;59.628;17.852;2024-03-22T14:41:57;6.17;;;1.80;;
12122;SDS011;6125;59.628;17.852;2024-03-22T14:44:26;2.20;;;1.50;;
12122;SDS011;6125;59.628;17.852;2024-03-22T14:47:03;3.47;;;1.63;;
12122;SDS011;6125;59.628;17.852;2024-03-22T14:49:34;2.47;;;1.67;;
12122;SDS011;6125;59.628;17.852;2024-03-22T14:52:01;4.80;;;2.03;;
12122;SDS011;6125;59.628;17.852;2024-03-22T14:54:35;2.23;;;1.60;;
12122;SDS011;6125;59.628;17.852;2024-03-22T14:57:05;5.73;;;2.40;;
12122;SDS011;6125;59.628;17.852;2024-03-22T14:59:32;2.90;;;1.70;;
12122;SDS011;6125;59.628;17.852;2024-03-22T15:02:06;7.33;;;2.07;;
12122;SDS011;6125;59.628;17.852;2024-03-22T15:04:35;6.73;;;2.10;;
12122;SDS011;6125;59.628;17.852;2024-03-22T15:07:02;3.30;;;1.70;;
12122;SDS011;6125;59.628;17.852;2024-03-22T15:09:36;6.50;;;2.40;;
12122;SDS011;6125;59.628;17.852;2024-03-22T15:12:08;5.77;;;2.67;;
12122;SDS011;6125;59.628;17.852;2024-03-22T15:14:35;3.23;;;2.03;;